COFK1: Verdigris River, Coffeyville Ks

                                SHEF ID:       COFK1     VERDIGRIS R AT COFFEYVILLE, KS
STATION TYPE:
Regulating: Stage = 28.00, Flow = 31353

STAGE RIV-FLOW BAT-LOAD
ft cfs volt
Ccp-Rev Ccp-Rev Ccp-Rev
(America/Chicago)
07/17 00:00 4.85 1012 12.51
07/17 01:00 4.83 999 12.48
07/17 02:00 4.80 979 12.47
07/17 03:00 4.77 960 12.45
07/17 04:00 4.74 940 12.44
07/17 05:00 4.71 921 12.44
07/17 06:00 4.68 902 12.43
07/17 07:00 4.65 883 12.42
07/17 08:00 4.62 864 12.48
07/17 09:00 4.59 846 12.62
07/17 10:00 4.56 828 12.99
07/17 11:00 4.53 810 12.96
07/17 12:00 4.50 792 12.93
07/17 13:00 4.46 768 12.99
07/17 14:00 4.45 763 12.80
07/17 15:00 4.43 751 12.70
07/17 16:00 4.35 706 12.74
07/17 17:00 4.34 700 12.70
07/17 18:00 4.31 684 12.66
07/17 19:00 4.29 673 12.64
07/17 20:00 4.30 678 12.63
07/17 21:00 4.29 673 12.60
07/17 22:00 4.27 662 12.57
07/17 23:00 4.25 651 12.54
Data processed at Sat 18Jul2026 04:47 GMT

NOTICE: If you are parsing this page

Please convert to using our Data API. Starting early 2026 we will be migrating to: https://water.usace.army.mil with modern pages rendered in JavaScript. When this migration completes you will no longer be able to scrape this page! CWMSDataAPI (CDA)

Timeseries IDs (TSIDs)

TSIDs used from left to right in the data table
COFF.Stage.Inst.1Hour.0.Ccp-Rev
COFF.Flow.Inst.1Hour.0.Ccp-Rev
COFF.Volt-Battery Load.Inst.1Hour.0.Ccp-Rev

                            

All information presented herein is the property of the government of the United States of America and may be revised or deleted at any time without prior notice. Dissemination of this information without the expressed written consent of the Public Affairs Office, Tulsa District U.S. Army Corps of Engineers is strictly prohibited. These data are gathered electronically and, as presented, have NOT undergone any form of quality control. These data are NOT guaranteed to be valid or correct.